Back to Top

Current Local METAR Station Weather Reports...

Local METAR Reports

Local METAR Reports

 

EGCN - Doncaster Sheffield Airport, United Kingdom
Distance from station: E 20mi, 32km
Updated: Fri, 24-May-2019 6:20pm BST
Clear
Clear
 Wind from WNW
Wind: WNW 16 mph , 26 km/h
Temperature: 18°C
Dew Point: 7°C
Humidity: 49%
Barometer: 1016 hPa
Summary: Clear
Visibility: greater than 7 miles , 10 km
2019/05/24 17:20 EGCN 241720Z 29014KT CAVOK 18/07 Q1016
EGNM - Leeds Bradford International, United Kingdom
Distance from station: NNW 24mi, 39km
Updated: Fri, 24-May-2019 6:20pm BST
Few Clouds
Few Clouds
 Wind from WNW
Wind: WNW 17 mph , 28 km/h
Temperature: 15°C
Dew Point: 8°C
Humidity: 63%
Barometer: 1017 hPa
Clouds: Few Clouds
Visibility: 6 miles , 10 km
Cloud details: Few Clouds 853 m
2019/05/24 17:20 EGNM 241720Z 29015KT 9999 FEW028 15/08 Q1017
 
EGCC - Manchester International, United Kingdom
Distance from station: WSW 35mi, 56km
Updated: Fri, 24-May-2019 5:50pm BST
Clear
Clear
 Wind from W
Wind: W 14 mph , 22 km/h
Temperature: 15°C
Dew Point: 9°C
Humidity: 68%
Barometer: 1018 hPa
Clouds: Clear
Visibility: 6 miles , 10 km
2019/05/24 16:50 EGCC 241650Z AUTO 28012KT 9999 NCD 15/09 Q1018 NOSIG
EGXU - Linton-On-Ouse RAF, United Kingdom
Distance from station: NNE 37mi, 60km
Updated: Fri, 24-May-2019 5:50pm BST
Mostly Cloudy
Mostly Cloudy
 Wind from W
Wind: W 15 mph , 24 km/h
Temperature: 18°C
Dew Point: 10°C
Humidity: 60%
Barometer: 1015 hPa
Clouds: Mostly Cloudy
Visibility: 6 miles , 10 km
Cloud details: Mostly Cloudy 4572 m
2019/05/24 16:50 EGXU 241650Z AUTO 26013KT 9999 // BKN150/// 18/10 Q1015
 
EGXP - Scampton RAF, United Kingdom
Distance from station: ESE 41mi, 66km
Updated: Fri, 24-May-2019 5:50pm BST
Few Clouds
Few Clouds
 Wind from WNW
Wind: WNW 16 mph , 26 km/h
Temperature: 20°C
Dew Point: 6°C
Humidity: 40%
Barometer: 1015 hPa
Clouds: Few Clouds
Visibility: 6 miles , 10 km
Cloud details: Few Clouds 1402 m
2019/05/24 16:50 EGXP 241650Z AUTO 30014KT 9999 // FEW046/// 20/06 Q1015
EGNJ - Humberside Airport, United Kingdom
Distance from station: E 46mi, 74km
Updated: Fri, 24-May-2019 6:20pm BST
Few Clouds
Few Clouds
 Wind from E
Wind: E 8 mph , 13 km/h
Temperature: 15°C
Dew Point: 10°C
Humidity: 72%
Barometer: 1016 hPa
Clouds: Few Clouds
Visibility: 6 miles , 10 km
Cloud details: Few Clouds 1158 m
2019/05/24 17:20 EGNJ 241720Z 09007KT 9999 FEW038 15/10 Q1016
 
EGXW - Waddington RAF, United Kingdom
Distance from station: ESE 46mi, 74km
Updated: Fri, 24-May-2019 5:50pm BST
Few Clouds
Few Clouds
 Wind from WNW
Wind: WNW 13 mph , 20 km/h
Temperature: 19°C
Dew Point: 8°C
Humidity: 49%
Barometer: 1015 hPa
Clouds: Few Clouds
Visibility: 6 miles , 10 km
Cloud details: Few Clouds 1372 m
2019/05/24 16:50 EGXW 241650Z 29011KT 9999 FEW045 19/08 Q1015 BLU NOSIG
EGXZ - Topcliffe RAF, United Kingdom
Distance from station: N 46mi, 75km
Updated: Fri, 24-May-2019 5:50pm BST
Partly Cloudy
Partly Cloudy
 Wind from W
Wind: W 14 mph , 22 km/h
Temperature: 19°C
Dew Point: 9°C
Humidity: 52%
Barometer: 1015 hPa
Clouds: Partly Cloudy
Visibility: 6 miles , 10 km
Cloud details: Partly Cloudy 4877 m
2019/05/24 16:50 EGXZ 241650Z AUTO 28012KT 9999 SCT160/// 19/09 Q1015
 
EGXV - Leconfield, United Kingdom
Distance from station: ENE 48mi, 77km
Updated: Fri, 24-May-2019 5:50pm BST
Clear
Clear
 Wind from E
Wind: E 8 mph , 13 km/h
Temperature: 15°C
Dew Point: 8°C
Humidity: 63%
Barometer: 1016 hPa
Clouds: Clear
Visibility: 6 miles , 10 km
2019/05/24 16:50 EGXV 241650Z AUTO 09007KT 9999 NCD 15/08 Q1016
EGNX - East Midlands, United Kingdom
Distance from station: S 50mi, 80km
Updated: Fri, 24-May-2019 6:20pm BST
Partly Cloudy
Partly Cloudy
 Wind from WNW
Wind: WNW 12 mph , 19 km/h
Temperature: 17°C
Dew Point: 9°C
Humidity: 59%
Barometer: 1017 hPa
Clouds: Partly Cloudy
Visibility: 6 miles , 10 km
Cloud details: Few Clouds 914 m
Partly Cloudy 1372 m
2019/05/24 17:20 EGNX 241720Z 30010KT 260V330 9999 FEW030 SCT045 17/09 Q1017

Metar display script from Saratoga-Weather.org

Data updates at regular intervals.